sensor_id;sensor_type;location;lat;lon;timestamp;temperature;humidity
75615;DHT22;64199;48.578;-4.520;2023-02-26T00:02:28;23.70;46.40
75615;DHT22;64199;48.578;-4.520;2023-02-26T00:04:56;23.70;46.40
75615;DHT22;64199;48.578;-4.520;2023-02-26T00:07:22;23.70;46.40
75615;DHT22;64199;48.578;-4.520;2023-02-26T00:09:48;23.70;46.40
75615;DHT22;64199;48.578;-4.520;2023-02-26T00:12:13;23.70;46.40
75615;DHT22;64199;48.578;-4.520;2023-02-26T00:14:40;23.70;46.40
75615;DHT22;64199;48.578;-4.520;2023-02-26T00:17:13;23.70;46.40
75615;DHT22;64199;48.578;-4.520;2023-02-26T00:19:51;23.70;46.40
75615;DHT22;64199;48.578;-4.520;2023-02-26T00:22:17;23.70;46.40
75615;DHT22;64199;48.578;-4.520;2023-02-26T00:24:43;23.70;46.40
75615;DHT22;64199;48.578;-4.520;2023-02-26T00:27:11;23.70;46.40
75615;DHT22;64199;48.578;-4.520;2023-02-26T00:29:37;23.70;46.40
75615;DHT22;64199;48.578;-4.520;2023-02-26T00:32:03;23.70;46.40
75615;DHT22;64199;48.578;-4.520;2023-02-26T00:34:29;23.70;46.40
75615;DHT22;64199;48.578;-4.520;2023-02-26T00:41:46;23.70;46.40
75615;DHT22;64199;48.578;-4.520;2023-02-26T00:44:12;23.70;46.30
75615;DHT22;64199;48.578;-4.520;2023-02-26T00:46:49;23.70;46.40
75615;DHT22;64199;48.578;-4.520;2023-02-26T00:54:22;23.70;46.40
75615;DHT22;64199;48.578;-4.520;2023-02-26T00:56:48;23.80;46.40
75615;DHT22;64199;48.578;-4.520;2023-02-26T00:59:16;23.80;46.40
75615;DHT22;64199;48.578;-4.520;2023-02-26T01:01:42;23.70;46.40
75615;DHT22;64199;48.578;-4.520;2023-02-26T01:04:10;23.70;46.30
75615;DHT22;64199;48.578;-4.520;2023-02-26T01:06:37;23.70;46.20
75615;DHT22;64199;48.578;-4.520;2023-02-26T01:11:35;23.60;46.20
75615;DHT22;64199;48.578;-4.520;2023-02-26T01:14:01;23.60;46.20
75615;DHT22;64199;48.578;-4.520;2023-02-26T01:16:28;23.50;46.10
75615;DHT22;64199;48.578;-4.520;2023-02-26T01:19:00;23.50;46.10
75615;DHT22;64199;48.578;-4.520;2023-02-26T01:21:28;23.40;46.10
75615;DHT22;64199;48.578;-4.520;2023-02-26T01:23:56;23.40;46.00
75615;DHT22;64199;48.578;-4.520;2023-02-26T01:26:26;23.30;46.10
75615;DHT22;64199;48.578;-4.520;2023-02-26T01:28:52;23.20;46.10
75615;DHT22;64199;48.578;-4.520;2023-02-26T01:33:54;23.10;46.20
75615;DHT22;64199;48.578;-4.520;2023-02-26T01:36:23;23.10;46.30
75615;DHT22;64199;48.578;-4.520;2023-02-26T01:38:55;23.00;46.30
75615;DHT22;64199;48.578;-4.520;2023-02-26T01:41:42;23.00;46.30
75615;DHT22;64199;48.578;-4.520;2023-02-26T01:49:17;22.80;46.30
75615;DHT22;64199;48.578;-4.520;2023-02-26T01:51:53;22.70;46.30
75615;DHT22;64199;48.578;-4.520;2023-02-26T01:54:20;22.60;46.30
75615;DHT22;64199;48.578;-4.520;2023-02-26T01:56:47;22.60;46.40
75615;DHT22;64199;48.578;-4.520;2023-02-26T01:59:14;22.60;46.40
75615;DHT22;64199;48.578;-4.520;2023-02-26T02:01:41;22.50;46.40
75615;DHT22;64199;48.578;-4.520;2023-02-26T02:04:09;22.40;46.40
75615;DHT22;64199;48.578;-4.520;2023-02-26T02:06:36;22.40;46.50
75615;DHT22;64199;48.578;-4.520;2023-02-26T02:09:04;22.40;46.50
75615;DHT22;64199;48.578;-4.520;2023-02-26T02:11:30;22.30;46.50
75615;DHT22;64199;48.578;-4.520;2023-02-26T02:16:29;22.20;46.60
75615;DHT22;64199;48.578;-4.520;2023-02-26T02:23:51;22.10;46.80
75615;DHT22;64199;48.578;-4.520;2023-02-26T02:31:21;22.00;46.90
75615;DHT22;64199;48.578;-4.520;2023-02-26T02:33:49;21.90;47.00
75615;DHT22;64199;48.578;-4.520;2023-02-26T02:36:23;21.80;47.00
75615;DHT22;64199;48.578;-4.520;2023-02-26T02:38:53;21.80;47.00
75615;DHT22;64199;48.578;-4.520;2023-02-26T02:44:06;21.70;47.10
75615;DHT22;64199;48.578;-4.520;2023-02-26T02:46:33;21.70;47.20
75615;DHT22;64199;48.578;-4.520;2023-02-26T02:49:04;21.60;47.20
75615;DHT22;64199;48.578;-4.520;2023-02-26T02:51:33;21.60;47.20
75615;DHT22;64199;48.578;-4.520;2023-02-26T02:54:14;21.50;47.10
75615;DHT22;64199;48.578;-4.520;2023-02-26T02:59:15;21.50;47.30
75615;DHT22;64199;48.578;-4.520;2023-02-26T03:01:42;21.40;47.20
75615;DHT22;64199;48.578;-4.520;2023-02-26T03:04:12;21.40;47.20
75615;DHT22;64199;48.578;-4.520;2023-02-26T03:06:39;21.40;47.20
75615;DHT22;64199;48.578;-4.520;2023-02-26T03:09:07;21.40;47.20
75615;DHT22;64199;48.578;-4.520;2023-02-26T03:11:33;21.30;47.20
75615;DHT22;64199;48.578;-4.520;2023-02-26T03:13:59;21.30;47.30
75615;DHT22;64199;48.578;-4.520;2023-02-26T03:16:33;21.30;47.20
75615;DHT22;64199;48.578;-4.520;2023-02-26T03:26:33;21.30;47.70
75615;DHT22;64199;48.578;-4.520;2023-02-26T03:29:05;21.30;47.70
75615;DHT22;64199;48.578;-4.520;2023-02-26T03:41:35;21.40;47.80
75615;DHT22;64199;48.578;-4.520;2023-02-26T03:44:05;21.40;47.80
75615;DHT22;64199;48.578;-4.520;2023-02-26T03:46:33;21.50;47.70
75615;DHT22;64199;48.578;-4.520;2023-02-26T03:49:00;21.50;47.60
75615;DHT22;64199;48.578;-4.520;2023-02-26T03:51:27;21.50;47.60
75615;DHT22;64199;48.578;-4.520;2023-02-26T03:53:55;21.50;47.60
75615;DHT22;64199;48.578;-4.520;2023-02-26T03:56:26;21.50;47.60
75615;DHT22;64199;48.578;-4.520;2023-02-26T03:58:53;21.60;47.50
75615;DHT22;64199;48.578;-4.520;2023-02-26T04:01:21;21.60;47.50
75615;DHT22;64199;48.578;-4.520;2023-02-26T04:03:58;21.60;47.50
75615;DHT22;64199;48.578;-4.520;2023-02-26T04:06:24;21.60;47.50
75615;DHT22;64199;48.578;-4.520;2023-02-26T04:08:50;21.60;47.50
75615;DHT22;64199;48.578;-4.520;2023-02-26T04:11:17;21.60;47.40
75615;DHT22;64199;48.578;-4.520;2023-02-26T04:13:43;21.60;47.40
75615;DHT22;64199;48.578;-4.520;2023-02-26T04:16:09;21.60;47.50
75615;DHT22;64199;48.578;-4.520;2023-02-26T04:18:35;21.60;47.40
75615;DHT22;64199;48.578;-4.520;2023-02-26T04:21:01;21.70;47.50
75615;DHT22;64199;48.578;-4.520;2023-02-26T04:23:27;21.70;47.50
75615;DHT22;64199;48.578;-4.520;2023-02-26T04:25:53;21.70;47.40
75615;DHT22;64199;48.578;-4.520;2023-02-26T04:28:19;21.70;47.40
75615;DHT22;64199;48.578;-4.520;2023-02-26T04:30:44;21.70;47.40
75615;DHT22;64199;48.578;-4.520;2023-02-26T04:33:11;21.70;47.40
75615;DHT22;64199;48.578;-4.520;2023-02-26T04:35:37;21.70;47.50
75615;DHT22;64199;48.578;-4.520;2023-02-26T04:38:03;21.70;47.40
75615;DHT22;64199;48.578;-4.520;2023-02-26T04:40:30;21.70;47.40
75615;DHT22;64199;48.578;-4.520;2023-02-26T04:42:56;21.80;47.40
75615;DHT22;64199;48.578;-4.520;2023-02-26T04:45:21;21.80;47.40
75615;DHT22;64199;48.578;-4.520;2023-02-26T04:47:47;21.80;47.40
75615;DHT22;64199;48.578;-4.520;2023-02-26T04:50:13;21.80;47.40
75615;DHT22;64199;48.578;-4.520;2023-02-26T04:52:39;21.80;47.40
75615;DHT22;64199;48.578;-4.520;2023-02-26T04:55:05;21.80;47.40
75615;DHT22;64199;48.578;-4.520;2023-02-26T04:57:31;21.80;47.40
75615;DHT22;64199;48.578;-4.520;2023-02-26T04:59:57;21.80;47.40
75615;DHT22;64199;48.578;-4.520;2023-02-26T05:02:23;21.80;47.40
75615;DHT22;64199;48.578;-4.520;2023-02-26T05:04:49;21.80;47.40
75615;DHT22;64199;48.578;-4.520;2023-02-26T05:07:15;21.80;47.30
75615;DHT22;64199;48.578;-4.520;2023-02-26T05:09:40;21.90;47.40
75615;DHT22;64199;48.578;-4.520;2023-02-26T05:12:06;21.80;47.30
75615;DHT22;64199;48.578;-4.520;2023-02-26T05:14:32;21.80;47.30
75615;DHT22;64199;48.578;-4.520;2023-02-26T05:16:58;21.80;47.40
75615;DHT22;64199;48.578;-4.520;2023-02-26T05:19:24;21.90;48.00
75615;DHT22;64199;48.578;-4.520;2023-02-26T05:21:50;21.90;47.50
75615;DHT22;64199;48.578;-4.520;2023-02-26T05:24:16;21.90;47.40
75615;DHT22;64199;48.578;-4.520;2023-02-26T05:26:41;21.90;47.40
75615;DHT22;64199;48.578;-4.520;2023-02-26T05:29:07;21.90;47.40
75615;DHT22;64199;48.578;-4.520;2023-02-26T05:31:33;21.90;47.40
75615;DHT22;64199;48.578;-4.520;2023-02-26T05:33:58;21.90;47.40
75615;DHT22;64199;48.578;-4.520;2023-02-26T05:36:24;21.90;47.40
75615;DHT22;64199;48.578;-4.520;2023-02-26T05:38:50;22.00;48.10
75615;DHT22;64199;48.578;-4.520;2023-02-26T05:41:16;22.00;47.50
75615;DHT22;64199;48.578;-4.520;2023-02-26T05:43:42;22.00;47.50
75615;DHT22;64199;48.578;-4.520;2023-02-26T05:46:08;22.00;47.50
75615;DHT22;64199;48.578;-4.520;2023-02-26T05:48:33;22.00;47.50
75615;DHT22;64199;48.578;-4.520;2023-02-26T05:50:59;22.00;47.50
75615;DHT22;64199;48.578;-4.520;2023-02-26T05:53:25;22.00;47.40
75615;DHT22;64199;48.578;-4.520;2023-02-26T05:55:52;22.00;47.50
75615;DHT22;64199;48.578;-4.520;2023-02-26T05:58:17;22.00;47.40
75615;DHT22;64199;48.578;-4.520;2023-02-26T06:00:43;22.10;47.50
75615;DHT22;64199;48.578;-4.520;2023-02-26T06:03:09;22.10;47.50
75615;DHT22;64199;48.578;-4.520;2023-02-26T06:05:35;22.10;47.70
75615;DHT22;64199;48.578;-4.520;2023-02-26T06:08:01;22.10;47.80
75615;DHT22;64199;48.578;-4.520;2023-02-26T06:10:27;22.10;47.70
75615;DHT22;64199;48.578;-4.520;2023-02-26T06:12:53;22.10;47.70
75615;DHT22;64199;48.578;-4.520;2023-02-26T06:15:19;22.10;47.70
75615;DHT22;64199;48.578;-4.520;2023-02-26T06:17:45;22.10;47.80
75615;DHT22;64199;48.578;-4.520;2023-02-26T06:20:11;22.10;48.00
75615;DHT22;64199;48.578;-4.520;2023-02-26T06:22:37;22.20;48.10
75615;DHT22;64199;48.578;-4.520;2023-02-26T06:25:03;22.20;47.90
75615;DHT22;64199;48.578;-4.520;2023-02-26T06:27:29;22.20;47.80
75615;DHT22;64199;48.578;-4.520;2023-02-26T06:29:54;22.20;47.80
75615;DHT22;64199;48.578;-4.520;2023-02-26T06:32:21;22.20;47.90
75615;DHT22;64199;48.578;-4.520;2023-02-26T06:34:47;22.20;47.90
75615;DHT22;64199;48.578;-4.520;2023-02-26T06:37:13;22.20;47.90
75615;DHT22;64199;48.578;-4.520;2023-02-26T06:39:38;22.20;47.90
75615;DHT22;64199;48.578;-4.520;2023-02-26T06:42:04;22.20;47.80
75615;DHT22;64199;48.578;-4.520;2023-02-26T06:44:30;22.20;47.70
75615;DHT22;64199;48.578;-4.520;2023-02-26T06:46:55;22.20;47.60
75615;DHT22;64199;48.578;-4.520;2023-02-26T06:49:21;22.20;47.50
75615;DHT22;64199;48.578;-4.520;2023-02-26T06:51:47;22.30;47.50
75615;DHT22;64199;48.578;-4.520;2023-02-26T06:54:13;22.20;47.40
75615;DHT22;64199;48.578;-4.520;2023-02-26T06:56:39;22.20;47.40
75615;DHT22;64199;48.578;-4.520;2023-02-26T06:59:04;22.30;47.40
75615;DHT22;64199;48.578;-4.520;2023-02-26T07:01:30;22.30;47.40
75615;DHT22;64199;48.578;-4.520;2023-02-26T07:03:58;22.30;47.60
75615;DHT22;64199;48.578;-4.520;2023-02-26T07:06:24;22.30;47.70
75615;DHT22;64199;48.578;-4.520;2023-02-26T07:08:50;22.30;47.70
75615;DHT22;64199;48.578;-4.520;2023-02-26T07:11:16;22.30;47.60
75615;DHT22;64199;48.578;-4.520;2023-02-26T07:13:41;22.30;47.50
75615;DHT22;64199;48.578;-4.520;2023-02-26T07:16:07;22.30;47.50
75615;DHT22;64199;48.578;-4.520;2023-02-26T07:18:33;22.40;47.50
75615;DHT22;64199;48.578;-4.520;2023-02-26T07:20:59;22.40;47.40
75615;DHT22;64199;48.578;-4.520;2023-02-26T07:23:25;22.40;47.40
75615;DHT22;64199;48.578;-4.520;2023-02-26T07:25:50;22.40;47.40
75615;DHT22;64199;48.578;-4.520;2023-02-26T07:28:16;22.40;47.40
75615;DHT22;64199;48.578;-4.520;2023-02-26T07:30:42;22.40;47.40
75615;DHT22;64199;48.578;-4.520;2023-02-26T07:33:08;22.40;47.30
75615;DHT22;64199;48.578;-4.520;2023-02-26T07:35:34;22.40;47.30
75615;DHT22;64199;48.578;-4.520;2023-02-26T07:38:00;22.40;47.30
75615;DHT22;64199;48.578;-4.520;2023-02-26T07:40:26;22.40;47.20
75615;DHT22;64199;48.578;-4.520;2023-02-26T07:42:51;22.40;47.30
75615;DHT22;64199;48.578;-4.520;2023-02-26T07:45:17;22.40;47.20
75615;DHT22;64199;48.578;-4.520;2023-02-26T07:47:50;22.40;47.20
75615;DHT22;64199;48.578;-4.520;2023-02-26T07:50:16;22.40;47.20
75615;DHT22;64199;48.578;-4.520;2023-02-26T07:52:42;22.40;47.20
75615;DHT22;64199;48.578;-4.520;2023-02-26T07:55:08;22.50;47.20
75615;DHT22;64199;48.578;-4.520;2023-02-26T07:57:34;22.50;47.20
75615;DHT22;64199;48.578;-4.520;2023-02-26T07:59:59;22.50;47.20
75615;DHT22;64199;48.578;-4.520;2023-02-26T08:02:26;22.40;47.10
75615;DHT22;64199;48.578;-4.520;2023-02-26T08:04:51;22.50;47.20
75615;DHT22;64199;48.578;-4.520;2023-02-26T08:07:17;22.50;47.10
75615;DHT22;64199;48.578;-4.520;2023-02-26T08:09:43;22.50;47.20
75615;DHT22;64199;48.578;-4.520;2023-02-26T08:12:08;22.50;47.80
75615;DHT22;64199;48.578;-4.520;2023-02-26T08:14:34;22.50;47.10
75615;DHT22;64199;48.578;-4.520;2023-02-26T08:17:00;22.50;47.10
75615;DHT22;64199;48.578;-4.520;2023-02-26T08:19:26;22.50;47.20
75615;DHT22;64199;48.578;-4.520;2023-02-26T08:21:51;22.50;47.10
75615;DHT22;64199;48.578;-4.520;2023-02-26T08:24:19;22.50;47.10
75615;DHT22;64199;48.578;-4.520;2023-02-26T08:26:45;22.50;47.10
75615;DHT22;64199;48.578;-4.520;2023-02-26T08:29:11;22.50;47.20
75615;DHT22;64199;48.578;-4.520;2023-02-26T08:31:36;22.50;47.20
75615;DHT22;64199;48.578;-4.520;2023-02-26T08:34:02;22.50;47.20
75615;DHT22;64199;48.578;-4.520;2023-02-26T08:36:29;22.60;47.90
75615;DHT22;64199;48.578;-4.520;2023-02-26T08:38:54;22.60;47.30
75615;DHT22;64199;48.578;-4.520;2023-02-26T08:41:20;22.60;47.40
75615;DHT22;64199;48.578;-4.520;2023-02-26T08:43:47;22.60;47.30
75615;DHT22;64199;48.578;-4.520;2023-02-26T08:46:13;22.60;47.40
75615;DHT22;64199;48.578;-4.520;2023-02-26T08:48:38;22.60;47.40
75615;DHT22;64199;48.578;-4.520;2023-02-26T08:51:04;22.60;47.40
75615;DHT22;64199;48.578;-4.520;2023-02-26T08:53:30;22.60;47.40
75615;DHT22;64199;48.578;-4.520;2023-02-26T08:55:56;22.60;47.40
75615;DHT22;64199;48.578;-4.520;2023-02-26T08:58:22;22.60;47.50
75615;DHT22;64199;48.578;-4.520;2023-02-26T09:00:47;22.60;47.50
75615;DHT22;64199;48.578;-4.520;2023-02-26T09:03:13;22.60;47.50
75615;DHT22;64199;48.578;-4.520;2023-02-26T09:05:39;22.60;47.50
75615;DHT22;64199;48.578;-4.520;2023-02-26T09:08:05;22.60;47.50
75615;DHT22;64199;48.578;-4.520;2023-02-26T09:10:31;22.70;47.50
75615;DHT22;64199;48.578;-4.520;2023-02-26T09:12:57;22.60;47.40
75615;DHT22;64199;48.578;-4.520;2023-02-26T09:15:23;22.70;47.50
75615;DHT22;64199;48.578;-4.520;2023-02-26T09:17:48;22.60;47.40
75615;DHT22;64199;48.578;-4.520;2023-02-26T09:20:16;22.70;47.50
75615;DHT22;64199;48.578;-4.520;2023-02-26T09:22:42;22.70;47.40
75615;DHT22;64199;48.578;-4.520;2023-02-26T09:25:07;22.70;47.70
75615;DHT22;64199;48.578;-4.520;2023-02-26T09:27:33;22.70;47.40
75615;DHT22;64199;48.578;-4.520;2023-02-26T09:30:01;22.70;47.40
75615;DHT22;64199;48.578;-4.520;2023-02-26T09:32:26;22.70;47.40
75615;DHT22;64199;48.578;-4.520;2023-02-26T09:34:52;22.70;47.40
75615;DHT22;64199;48.578;-4.520;2023-02-26T09:37:18;22.60;47.30
75615;DHT22;64199;48.578;-4.520;2023-02-26T09:39:43;22.70;47.40
75615;DHT22;64199;48.578;-4.520;2023-02-26T09:44:40;22.70;47.30
75615;DHT22;64199;48.578;-4.520;2023-02-26T09:52:13;22.70;47.30
75615;DHT22;64199;48.578;-4.520;2023-02-26T09:54:42;22.70;47.30
75615;DHT22;64199;48.578;-4.520;2023-02-26T09:57:09;22.70;47.20
75615;DHT22;64199;48.578;-4.520;2023-02-26T09:59:37;22.70;47.20
75615;DHT22;64199;48.578;-4.520;2023-02-26T10:02:14;22.80;47.30
75615;DHT22;64199;48.578;-4.520;2023-02-26T10:04:48;22.80;47.20
75615;DHT22;64199;48.578;-4.520;2023-02-26T10:12:25;22.70;47.10
75615;DHT22;64199;48.578;-4.520;2023-02-26T10:20:19;22.80;47.10
75615;DHT22;64199;48.578;-4.520;2023-02-26T10:22:56;22.80;47.10
75615;DHT22;64199;48.578;-4.520;2023-02-26T10:25:26;22.80;47.10
75615;DHT22;64199;48.578;-4.520;2023-02-26T10:30:45;22.80;47.10
75615;DHT22;64199;48.578;-4.520;2023-02-26T10:35:52;22.80;47.20
75615;DHT22;64199;48.578;-4.520;2023-02-26T10:38:19;22.80;47.20
75615;DHT22;64199;48.578;-4.520;2023-02-26T10:53:59;22.90;47.40
75615;DHT22;64199;48.578;-4.520;2023-02-26T10:56:28;22.90;47.40
75615;DHT22;64199;48.578;-4.520;2023-02-26T10:58:54;22.90;47.40
75615;DHT22;64199;48.578;-4.520;2023-02-26T11:01:21;23.00;47.40
75615;DHT22;64199;48.578;-4.520;2023-02-26T11:03:49;22.90;47.30
75615;DHT22;64199;48.578;-4.520;2023-02-26T11:06:23;23.00;47.40
75615;DHT22;64199;48.578;-4.520;2023-02-26T11:08:51;23.00;47.40
75615;DHT22;64199;48.578;-4.520;2023-02-26T11:14:02;23.00;47.30
75615;DHT22;64199;48.578;-4.520;2023-02-26T11:16:28;23.00;47.40
75615;DHT22;64199;48.578;-4.520;2023-02-26T11:18:54;23.00;47.40
75615;DHT22;64199;48.578;-4.520;2023-02-26T11:21:21;23.00;47.40
75615;DHT22;64199;48.578;-4.520;2023-02-26T11:23:48;23.00;47.40
75615;DHT22;64199;48.578;-4.520;2023-02-26T11:26:18;23.00;47.40
75615;DHT22;64199;48.578;-4.520;2023-02-26T11:28:45;23.00;47.30
75615;DHT22;64199;48.578;-4.520;2023-02-26T11:31:12;23.00;47.40
75615;DHT22;64199;48.578;-4.520;2023-02-26T11:33:42;23.00;47.30
75615;DHT22;64199;48.578;-4.520;2023-02-26T11:36:10;23.00;47.30
75615;DHT22;64199;48.578;-4.520;2023-02-26T11:38:36;23.10;47.30
75615;DHT22;64199;48.578;-4.520;2023-02-26T11:41:03;23.10;47.30
75615;DHT22;64199;48.578;-4.520;2023-02-26T11:43:38;23.10;47.30
75615;DHT22;64199;48.578;-4.520;2023-02-26T11:46:06;23.10;47.20
75615;DHT22;64199;48.578;-4.520;2023-02-26T11:48:37;23.10;47.20
75615;DHT22;64199;48.578;-4.520;2023-02-26T11:51:03;23.10;47.20
75615;DHT22;64199;48.578;-4.520;2023-02-26T11:53:31;23.20;47.20
75615;DHT22;64199;48.578;-4.520;2023-02-26T11:55:59;23.20;47.10
75615;DHT22;64199;48.578;-4.520;2023-02-26T11:58:27;23.20;47.10
75615;DHT22;64199;48.578;-4.520;2023-02-26T12:00:53;23.20;47.10
75615;DHT22;64199;48.578;-4.520;2023-02-26T12:03:20;23.20;47.10
75615;DHT22;64199;48.578;-4.520;2023-02-26T12:05:46;23.20;47.00
75615;DHT22;64199;48.578;-4.520;2023-02-26T12:13:22;23.20;47.00
75615;DHT22;64199;48.578;-4.520;2023-02-26T12:15:56;23.20;47.00
75615;DHT22;64199;48.578;-4.520;2023-02-26T12:23:52;23.30;47.00
75615;DHT22;64199;48.578;-4.520;2023-02-26T12:44:02;23.30;46.80
75615;DHT22;64199;48.578;-4.520;2023-02-26T12:46:48;23.40;47.00
75615;DHT22;64199;48.578;-4.520;2023-02-26T12:57:17;23.40;46.70
75615;DHT22;64199;48.578;-4.520;2023-02-26T13:05:21;23.50;46.70
75615;DHT22;64199;48.578;-4.520;2023-02-26T13:10:23;23.50;46.70
75615;DHT22;64199;48.578;-4.520;2023-02-26T13:18:26;23.50;46.60
75615;DHT22;64199;48.578;-4.520;2023-02-26T13:23:23;23.60;46.60
75615;DHT22;64199;48.578;-4.520;2023-02-26T13:25:53;23.60;46.60
75615;DHT22;64199;48.578;-4.520;2023-02-26T13:28:40;23.60;46.60
75615;DHT22;64199;48.578;-4.520;2023-02-26T13:31:17;23.60;46.50
75615;DHT22;64199;48.578;-4.520;2023-02-26T13:33:44;23.60;46.60
75615;DHT22;64199;48.578;-4.520;2023-02-26T13:36:10;23.70;46.50
75615;DHT22;64199;48.578;-4.520;2023-02-26T13:41:05;23.60;46.30
75615;DHT22;64199;48.578;-4.520;2023-02-26T13:51:18;23.70;46.40
75615;DHT22;64199;48.578;-4.520;2023-02-26T13:59:03;23.80;46.40
75615;DHT22;64199;48.578;-4.520;2023-02-26T14:01:33;23.80;46.40
75615;DHT22;64199;48.578;-4.520;2023-02-26T14:06:47;23.90;46.30
75615;DHT22;64199;48.578;-4.520;2023-02-26T14:17:26;23.90;46.10
75615;DHT22;64199;48.578;-4.520;2023-02-26T14:22:22;23.80;45.90
75615;DHT22;64199;48.578;-4.520;2023-02-26T14:27:42;23.80;45.90
75615;DHT22;64199;48.578;-4.520;2023-02-26T14:32:44;23.70;45.60
75615;DHT22;64199;48.578;-4.520;2023-02-26T14:35:11;23.70;45.50
75615;DHT22;64199;48.578;-4.520;2023-02-26T14:37:38;23.60;45.50
75615;DHT22;64199;48.578;-4.520;2023-02-26T14:40:07;23.60;45.50
75615;DHT22;64199;48.578;-4.520;2023-02-26T14:42:40;23.60;45.40
75615;DHT22;64199;48.578;-4.520;2023-02-26T14:47:45;23.50;45.40
75615;DHT22;64199;48.578;-4.520;2023-02-26T14:50:15;23.40;45.30
75615;DHT22;64199;48.578;-4.520;2023-02-26T14:52:51;23.40;45.30
75615;DHT22;64199;48.578;-4.520;2023-02-26T14:58:13;23.20;45.50
75615;DHT22;64199;48.578;-4.520;2023-02-26T15:05:50;23.00;45.70
75615;DHT22;64199;48.578;-4.520;2023-02-26T15:11:41;22.90;45.70
75615;DHT22;64199;48.578;-4.520;2023-02-26T15:21:31;22.80;45.20
75615;DHT22;64199;48.578;-4.520;2023-02-26T15:23:59;22.70;45.30
75615;DHT22;64199;48.578;-4.520;2023-02-26T15:28:50;22.70;45.20
75615;DHT22;64199;48.578;-4.520;2023-02-26T15:31:21;22.60;45.30
75615;DHT22;64199;48.578;-4.520;2023-02-26T15:33:54;22.60;45.40
75615;DHT22;64199;48.578;-4.520;2023-02-26T15:36:20;22.60;45.50
75615;DHT22;64199;48.578;-4.520;2023-02-26T15:38:55;22.60;45.50
75615;DHT22;64199;48.578;-4.520;2023-02-26T15:41:22;22.50;45.50
75615;DHT22;64199;48.578;-4.520;2023-02-26T15:43:51;22.50;45.50
75615;DHT22;64199;48.578;-4.520;2023-02-26T15:46:18;22.40;45.50
75615;DHT22;64199;48.578;-4.520;2023-02-26T15:48:45;22.40;45.60
75615;DHT22;64199;48.578;-4.520;2023-02-26T15:51:12;22.40;45.80
75615;DHT22;64199;48.578;-4.520;2023-02-26T15:53:42;22.40;45.90
75615;DHT22;64199;48.578;-4.520;2023-02-26T15:56:10;22.30;45.90
75615;DHT22;64199;48.578;-4.520;2023-02-26T15:58:41;22.30;46.00
75615;DHT22;64199;48.578;-4.520;2023-02-26T16:01:22;22.20;45.90
75615;DHT22;64199;48.578;-4.520;2023-02-26T16:03:50;22.20;46.00
75615;DHT22;64199;48.578;-4.520;2023-02-26T16:06:38;22.20;46.00
75615;DHT22;64199;48.578;-4.520;2023-02-26T16:09:05;22.20;45.90
75615;DHT22;64199;48.578;-4.520;2023-02-26T16:11:32;22.10;45.80
75615;DHT22;64199;48.578;-4.520;2023-02-26T16:13:59;22.10;45.70
75615;DHT22;64199;48.578;-4.520;2023-02-26T16:16:26;22.00;45.80
75615;DHT22;64199;48.578;-4.520;2023-02-26T16:18:53;22.00;45.70
75615;DHT22;64199;48.578;-4.520;2023-02-26T16:21:26;22.00;45.80
75615;DHT22;64199;48.578;-4.520;2023-02-26T16:23:53;21.90;45.80
75615;DHT22;64199;48.578;-4.520;2023-02-26T16:26:23;21.90;45.90
75615;DHT22;64199;48.578;-4.520;2023-02-26T16:28:51;22.00;45.90
75615;DHT22;64199;48.578;-4.520;2023-02-26T16:31:21;21.90;45.90
75615;DHT22;64199;48.578;-4.520;2023-02-26T16:36:19;21.90;46.00
75615;DHT22;64199;48.578;-4.520;2023-02-26T16:38:49;21.80;46.10
75615;DHT22;64199;48.578;-4.520;2023-02-26T16:41:15;21.80;46.10
75615;DHT22;64199;48.578;-4.520;2023-02-26T16:46:16;21.80;46.10
75615;DHT22;64199;48.578;-4.520;2023-02-26T16:48:46;21.80;46.20
75615;DHT22;64199;48.578;-4.520;2023-02-26T16:51:15;21.80;46.20
75615;DHT22;64199;48.578;-4.520;2023-02-26T16:53:45;21.70;46.20
75615;DHT22;64199;48.578;-4.520;2023-02-26T16:56:13;21.70;46.30
75615;DHT22;64199;48.578;-4.520;2023-02-26T16:58:43;21.70;46.40
75615;DHT22;64199;48.578;-4.520;2023-02-26T17:01:13;21.70;46.40
75615;DHT22;64199;48.578;-4.520;2023-02-26T17:03:40;21.70;46.50
75615;DHT22;64199;48.578;-4.520;2023-02-26T17:06:09;21.70;46.50
75615;DHT22;64199;48.578;-4.520;2023-02-26T17:08:52;21.70;46.60
75615;DHT22;64199;48.578;-4.520;2023-02-26T17:13:44;21.80;46.60
75615;DHT22;64199;48.578;-4.520;2023-02-26T17:16:11;21.80;46.60
75615;DHT22;64199;48.578;-4.520;2023-02-26T17:18:37;21.80;46.60
75615;DHT22;64199;48.578;-4.520;2023-02-26T17:21:02;21.80;46.70
75615;DHT22;64199;48.578;-4.520;2023-02-26T17:23:31;21.90;46.70
75615;DHT22;64199;48.578;-4.520;2023-02-26T17:25:57;21.90;46.70
75615;DHT22;64199;48.578;-4.520;2023-02-26T17:28:30;21.90;47.30
75615;DHT22;64199;48.578;-4.520;2023-02-26T17:30:56;21.90;46.70
75615;DHT22;64199;48.578;-4.520;2023-02-26T17:33:22;21.90;46.70
75615;DHT22;64199;48.578;-4.520;2023-02-26T17:35:48;22.00;46.80
75615;DHT22;64199;48.578;-4.520;2023-02-26T17:38:14;22.00;46.80
75615;DHT22;64199;48.578;-4.520;2023-02-26T17:40:41;22.00;46.80
75615;DHT22;64199;48.578;-4.520;2023-02-26T17:43:07;22.10;46.80
75615;DHT22;64199;48.578;-4.520;2023-02-26T17:45:34;22.10;46.80
75615;DHT22;64199;48.578;-4.520;2023-02-26T17:48:01;22.10;46.80
75615;DHT22;64199;48.578;-4.520;2023-02-26T17:53:04;22.10;46.80
75615;DHT22;64199;48.578;-4.520;2023-02-26T17:55:29;22.10;46.80
75615;DHT22;64199;48.578;-4.520;2023-02-26T17:57:56;22.20;46.80
75615;DHT22;64199;48.578;-4.520;2023-02-26T18:00:22;22.20;46.80
75615;DHT22;64199;48.578;-4.520;2023-02-26T18:02:47;22.20;46.90
75615;DHT22;64199;48.578;-4.520;2023-02-26T18:05:15;22.20;46.90
75615;DHT22;64199;48.578;-4.520;2023-02-26T18:07:41;22.20;46.90
75615;DHT22;64199;48.578;-4.520;2023-02-26T18:10:09;22.20;46.90
75615;DHT22;64199;48.578;-4.520;2023-02-26T18:12:36;22.30;46.90
75615;DHT22;64199;48.578;-4.520;2023-02-26T18:15:03;22.30;46.90
75615;DHT22;64199;48.578;-4.520;2023-02-26T18:17:28;22.30;47.00
75615;DHT22;64199;48.578;-4.520;2023-02-26T18:19:58;22.30;46.90
75615;DHT22;64199;48.578;-4.520;2023-02-26T18:22:24;22.30;46.90
75615;DHT22;64199;48.578;-4.520;2023-02-26T18:24:51;22.40;46.90
75615;DHT22;64199;48.578;-4.520;2023-02-26T18:27:18;22.40;46.90
75615;DHT22;64199;48.578;-4.520;2023-02-26T18:29:44;22.40;46.90
75615;DHT22;64199;48.578;-4.520;2023-02-26T18:32:14;22.40;46.90
75615;DHT22;64199;48.578;-4.520;2023-02-26T18:34:40;22.40;46.80
75615;DHT22;64199;48.578;-4.520;2023-02-26T18:37:08;22.40;46.80
75615;DHT22;64199;48.578;-4.520;2023-02-26T18:39:35;22.40;46.80
75615;DHT22;64199;48.578;-4.520;2023-02-26T18:42:02;22.40;46.80
75615;DHT22;64199;48.578;-4.520;2023-02-26T18:44:28;22.50;46.80
75615;DHT22;64199;48.578;-4.520;2023-02-26T18:46:54;22.50;46.80
75615;DHT22;64199;48.578;-4.520;2023-02-26T18:49:20;22.50;46.80
75615;DHT22;64199;48.578;-4.520;2023-02-26T18:51:46;22.50;46.80
75615;DHT22;64199;48.578;-4.520;2023-02-26T18:54:12;22.50;46.80